sensor_id;sensor_type;location;lat;lon;timestamp;P1;durP1;ratioP1;P2;durP2;ratioP2
65234;SDS011;51820;48.374;10.930;2022-10-23T00:01:44;11.02;;;4.32;;
65234;SDS011;51820;48.374;10.930;2022-10-23T00:04:14;9.13;;;4.23;;
65234;SDS011;51820;48.374;10.930;2022-10-23T00:06:44;8.23;;;3.75;;
65234;SDS011;51820;48.374;10.930;2022-10-23T00:09:14;7.40;;;3.78;;
65234;SDS011;51820;48.374;10.930;2022-10-23T00:11:44;8.75;;;3.70;;
65234;SDS011;51820;48.374;10.930;2022-10-23T00:14:14;9.20;;;3.60;;
65234;SDS011;51820;48.374;10.930;2022-10-23T00:16:44;10.63;;;3.53;;
65234;SDS011;51820;48.374;10.930;2022-10-23T00:19:13;9.10;;;3.17;;
65234;SDS011;51820;48.374;10.930;2022-10-23T00:21:41;9.73;;;3.38;;
65234;SDS011;51820;48.374;10.930;2022-10-23T00:24:10;7.65;;;3.30;;
65234;SDS011;51820;48.374;10.930;2022-10-23T00:26:38;7.82;;;3.08;;
65234;SDS011;51820;48.374;10.930;2022-10-23T00:29:07;7.87;;;3.47;;
65234;SDS011;51820;48.374;10.930;2022-10-23T00:31:38;8.88;;;3.65;;
65234;SDS011;51820;48.374;10.930;2022-10-23T00:34:06;9.48;;;3.88;;
65234;SDS011;51820;48.374;10.930;2022-10-23T00:36:37;11.82;;;3.47;;
65234;SDS011;51820;48.374;10.930;2022-10-23T00:39:06;14.40;;;4.30;;
65234;SDS011;51820;48.374;10.930;2022-10-23T00:41:34;9.40;;;3.90;;
65234;SDS011;51820;48.374;10.930;2022-10-23T00:44:04;13.32;;;5.20;;
65234;SDS011;51820;48.374;10.930;2022-10-23T00:46:35;12.73;;;5.32;;
65234;SDS011;51820;48.374;10.930;2022-10-23T00:49:08;12.00;;;5.05;;
65234;SDS011;51820;48.374;10.930;2022-10-23T00:51:38;14.02;;;5.45;;
65234;SDS011;51820;48.374;10.930;2022-10-23T00:54:10;12.40;;;4.80;;
65234;SDS011;51820;48.374;10.930;2022-10-23T00:56:56;15.50;;;5.53;;
65234;SDS011;51820;48.374;10.930;2022-10-23T00:59:26;14.00;;;5.45;;
65234;SDS011;51820;48.374;10.930;2022-10-23T01:01:57;16.05;;;5.28;;
65234;SDS011;51820;48.374;10.930;2022-10-23T01:04:26;14.77;;;6.13;;
65234;SDS011;51820;48.374;10.930;2022-10-23T01:06:58;13.40;;;5.07;;
65234;SDS011;51820;48.374;10.930;2022-10-23T01:09:31;12.00;;;5.10;;
65234;SDS011;51820;48.374;10.930;2022-10-23T01:12:06;12.05;;;4.75;;
65234;SDS011;51820;48.374;10.930;2022-10-23T01:14:42;14.57;;;5.05;;
65234;SDS011;51820;48.374;10.930;2022-10-23T01:17:20;14.10;;;4.90;;
65234;SDS011;51820;48.374;10.930;2022-10-23T01:19:55;13.07;;;5.13;;
65234;SDS011;51820;48.374;10.930;2022-10-23T01:22:41;12.65;;;4.93;;
65234;SDS011;51820;48.374;10.930;2022-10-23T01:25:22;9.32;;;3.95;;
65234;SDS011;51820;48.374;10.930;2022-10-23T01:28:03;7.20;;;3.33;;
65234;SDS011;51820;48.374;10.930;2022-10-23T01:30:37;11.98;;;4.35;;
65234;SDS011;51820;48.374;10.930;2022-10-23T01:33:10;16.97;;;5.30;;
65234;SDS011;51820;48.374;10.930;2022-10-23T01:35:49;19.17;;;5.95;;
65234;SDS011;51820;48.374;10.930;2022-10-23T01:38:21;20.58;;;6.47;;
65234;SDS011;51820;48.374;10.930;2022-10-23T01:40:58;19.88;;;6.47;;
65234;SDS011;51820;48.374;10.930;2022-10-23T01:43:33;17.80;;;5.35;;
65234;SDS011;51820;48.374;10.930;2022-10-23T01:46:06;13.30;;;4.87;;
65234;SDS011;51820;48.374;10.930;2022-10-23T01:48:39;9.68;;;4.22;;
65234;SDS011;51820;48.374;10.930;2022-10-23T01:51:09;9.93;;;4.07;;
65234;SDS011;51820;48.374;10.930;2022-10-23T01:53:41;10.57;;;3.80;;
65234;SDS011;51820;48.374;10.930;2022-10-23T01:56:14;13.30;;;3.70;;
65234;SDS011;51820;48.374;10.930;2022-10-23T01:58:48;7.43;;;3.57;;
65234;SDS011;51820;48.374;10.930;2022-10-23T02:01:21;6.20;;;3.00;;
65234;SDS011;51820;48.374;10.930;2022-10-23T02:03:52;12.73;;;3.58;;
65234;SDS011;51820;48.374;10.930;2022-10-23T02:06:23;11.40;;;4.40;;
65234;SDS011;51820;48.374;10.930;2022-10-23T02:08:52;14.30;;;5.53;;
65234;SDS011;51820;48.374;10.930;2022-10-23T02:11:20;11.13;;;4.07;;
65234;SDS011;51820;48.374;10.930;2022-10-23T02:13:53;9.40;;;3.90;;
65234;SDS011;51820;48.374;10.930;2022-10-23T02:16:28;9.43;;;3.90;;
65234;SDS011;51820;48.374;10.930;2022-10-23T02:19:03;12.80;;;4.25;;
65234;SDS011;51820;48.374;10.930;2022-10-23T02:21:40;9.73;;;4.03;;
65234;SDS011;51820;48.374;10.930;2022-10-23T02:24:18;11.60;;;4.40;;
65234;SDS011;51820;48.374;10.930;2022-10-23T02:26:52;16.38;;;5.32;;
65234;SDS011;51820;48.374;10.930;2022-10-23T02:29:26;16.98;;;5.93;;
65234;SDS011;51820;48.374;10.930;2022-10-23T02:31:58;14.90;;;4.95;;
65234;SDS011;51820;48.374;10.930;2022-10-23T02:34:26;13.10;;;5.55;;
65234;SDS011;51820;48.374;10.930;2022-10-23T02:36:55;17.90;;;5.73;;
65234;SDS011;51820;48.374;10.930;2022-10-23T02:39:24;21.85;;;6.78;;
65234;SDS011;51820;48.374;10.930;2022-10-23T02:41:55;18.42;;;5.97;;
65234;SDS011;51820;48.374;10.930;2022-10-23T02:44:37;11.95;;;4.47;;
65234;SDS011;51820;48.374;10.930;2022-10-23T02:47:16;11.50;;;3.80;;
65234;SDS011;51820;48.374;10.930;2022-10-23T02:50:00;6.87;;;3.20;;
65234;SDS011;51820;48.374;10.930;2022-10-23T02:52:32;12.57;;;3.58;;
65234;SDS011;51820;48.374;10.930;2022-10-23T02:55:10;13.65;;;3.97;;
65234;SDS011;51820;48.374;10.930;2022-10-23T02:57:50;10.93;;;3.85;;
65234;SDS011;51820;48.374;10.930;2022-10-23T03:00:23;13.10;;;4.15;;
65234;SDS011;51820;48.374;10.930;2022-10-23T03:02:53;12.27;;;3.70;;
65234;SDS011;51820;48.374;10.930;2022-10-23T03:05:26;8.07;;;3.60;;
65234;SDS011;51820;48.374;10.930;2022-10-23T03:07:58;11.20;;;3.65;;
65234;SDS011;51820;48.374;10.930;2022-10-23T03:10:34;10.35;;;4.53;;
65234;SDS011;51820;48.374;10.930;2022-10-23T03:13:04;11.73;;;4.03;;
65234;SDS011;51820;48.374;10.930;2022-10-23T03:15:40;15.10;;;5.33;;
65234;SDS011;51820;48.374;10.930;2022-10-23T03:18:11;19.30;;;5.75;;
65234;SDS011;51820;48.374;10.930;2022-10-23T03:20:44;16.13;;;5.75;;
65234;SDS011;51820;48.374;10.930;2022-10-23T03:23:13;20.40;;;5.47;;
65234;SDS011;51820;48.374;10.930;2022-10-23T03:25:42;12.77;;;4.72;;
65234;SDS011;51820;48.374;10.930;2022-10-23T03:28:24;11.13;;;4.50;;
65234;SDS011;51820;48.374;10.930;2022-10-23T03:30:54;12.05;;;4.03;;
65234;SDS011;51820;48.374;10.930;2022-10-23T03:33:22;12.18;;;3.78;;
65234;SDS011;51820;48.374;10.930;2022-10-23T03:35:50;7.82;;;3.45;;
65234;SDS011;51820;48.374;10.930;2022-10-23T03:38:19;7.78;;;3.70;;
65234;SDS011;51820;48.374;10.930;2022-10-23T03:40:48;9.10;;;4.10;;
65234;SDS011;51820;48.374;10.930;2022-10-23T03:43:16;9.55;;;3.60;;
65234;SDS011;51820;48.374;10.930;2022-10-23T03:45:45;16.67;;;3.53;;
65234;SDS011;51820;48.374;10.930;2022-10-23T03:48:16;10.35;;;3.83;;
65234;SDS011;51820;48.374;10.930;2022-10-23T03:50:44;8.52;;;3.42;;
65234;SDS011;51820;48.374;10.930;2022-10-23T03:53:13;7.00;;;3.20;;
65234;SDS011;51820;48.374;10.930;2022-10-23T03:55:42;9.05;;;3.80;;
65234;SDS011;51820;48.374;10.930;2022-10-23T03:58:10;7.72;;;3.47;;
65234;SDS011;51820;48.374;10.930;2022-10-23T04:00:46;10.30;;;3.30;;
65234;SDS011;51820;48.374;10.930;2022-10-23T04:03:20;7.28;;;3.38;;
65234;SDS011;51820;48.374;10.930;2022-10-23T04:05:50;9.50;;;3.60;;
65234;SDS011;51820;48.374;10.930;2022-10-23T04:08:20;9.63;;;3.20;;
65234;SDS011;51820;48.374;10.930;2022-10-23T04:10:52;8.23;;;3.20;;
65234;SDS011;51820;48.374;10.930;2022-10-23T04:13:43;8.32;;;2.60;;
65234;SDS011;51820;48.374;10.930;2022-10-23T04:16:15;6.70;;;3.10;;
65234;SDS011;51820;48.374;10.930;2022-10-23T04:18:45;7.27;;;2.80;;
65234;SDS011;51820;48.374;10.930;2022-10-23T04:21:14;7.70;;;2.97;;
65234;SDS011;51820;48.374;10.930;2022-10-23T04:23:42;7.60;;;3.22;;
65234;SDS011;51820;48.374;10.930;2022-10-23T04:26:13;8.98;;;2.80;;
65234;SDS011;51820;48.374;10.930;2022-10-23T04:28:42;6.35;;;2.83;;
65234;SDS011;51820;48.374;10.930;2022-10-23T04:31:10;7.63;;;2.67;;
65234;SDS011;51820;48.374;10.930;2022-10-23T04:33:40;7.85;;;2.92;;
65234;SDS011;51820;48.374;10.930;2022-10-23T04:36:21;6.55;;;2.83;;
65234;SDS011;51820;48.374;10.930;2022-10-23T04:38:49;9.07;;;3.00;;
65234;SDS011;51820;48.374;10.930;2022-10-23T04:41:18;6.13;;;2.65;;
65234;SDS011;51820;48.374;10.930;2022-10-23T04:43:47;6.50;;;2.60;;
65234;SDS011;51820;48.374;10.930;2022-10-23T04:46:16;6.00;;;2.40;;
65234;SDS011;51820;48.374;10.930;2022-10-23T04:48:46;7.00;;;2.38;;
65234;SDS011;51820;48.374;10.930;2022-10-23T04:51:23;7.57;;;2.17;;
65234;SDS011;51820;48.374;10.930;2022-10-23T04:54:15;8.23;;;2.97;;
65234;SDS011;51820;48.374;10.930;2022-10-23T04:56:56;6.13;;;2.70;;
65234;SDS011;51820;48.374;10.930;2022-10-23T04:59:31;5.80;;;2.47;;
65234;SDS011;51820;48.374;10.930;2022-10-23T05:01:59;6.13;;;2.45;;
65234;SDS011;51820;48.374;10.930;2022-10-23T05:04:27;13.13;;;2.80;;
65234;SDS011;51820;48.374;10.930;2022-10-23T05:07:16;7.63;;;2.90;;
65234;SDS011;51820;48.374;10.930;2022-10-23T05:10:03;7.83;;;3.10;;
65234;SDS011;51820;48.374;10.930;2022-10-23T05:12:45;7.18;;;2.60;;
65234;SDS011;51820;48.374;10.930;2022-10-23T05:15:14;8.50;;;3.13;;
65234;SDS011;51820;48.374;10.930;2022-10-23T05:17:42;5.95;;;2.83;;
65234;SDS011;51820;48.374;10.930;2022-10-23T05:20:14;7.35;;;2.90;;
65234;SDS011;51820;48.374;10.930;2022-10-23T05:22:46;6.97;;;2.70;;
65234;SDS011;51820;48.374;10.930;2022-10-23T05:25:19;7.45;;;3.05;;
65234;SDS011;51820;48.374;10.930;2022-10-23T05:27:54;8.13;;;3.35;;
65234;SDS011;51820;48.374;10.930;2022-10-23T05:30:24;7.88;;;2.75;;
65234;SDS011;51820;48.374;10.930;2022-10-23T05:32:52;8.40;;;2.90;;
65234;SDS011;51820;48.374;10.930;2022-10-23T05:35:24;6.90;;;3.07;;
65234;SDS011;51820;48.374;10.930;2022-10-23T05:37:55;5.70;;;2.60;;
65234;SDS011;51820;48.374;10.930;2022-10-23T05:40:25;7.43;;;2.92;;
65234;SDS011;51820;48.374;10.930;2022-10-23T05:42:59;7.70;;;2.83;;
65234;SDS011;51820;48.374;10.930;2022-10-23T05:45:45;8.10;;;2.97;;
65234;SDS011;51820;48.374;10.930;2022-10-23T05:48:52;7.80;;;2.37;;
65234;SDS011;51820;48.374;10.930;2022-10-23T05:51:34;6.15;;;2.88;;
65234;SDS011;51820;48.374;10.930;2022-10-23T05:54:32;7.10;;;2.70;;
65234;SDS011;51820;48.374;10.930;2022-10-23T05:57:14;5.50;;;2.42;;
65234;SDS011;51820;48.374;10.930;2022-10-23T05:59:49;7.30;;;2.97;;
65234;SDS011;51820;48.374;10.930;2022-10-23T06:02:24;6.57;;;2.63;;
65234;SDS011;51820;48.374;10.930;2022-10-23T06:05:03;6.72;;;2.90;;
65234;SDS011;51820;48.374;10.930;2022-10-23T06:07:31;8.45;;;2.60;;
65234;SDS011;51820;48.374;10.930;2022-10-23T06:10:05;7.40;;;3.28;;
65234;SDS011;51820;48.374;10.930;2022-10-23T06:12:40;9.35;;;2.33;;
65234;SDS011;51820;48.374;10.930;2022-10-23T06:15:12;6.07;;;2.60;;
65234;SDS011;51820;48.374;10.930;2022-10-23T06:18:04;7.05;;;3.10;;
65234;SDS011;51820;48.374;10.930;2022-10-23T06:20:36;8.80;;;2.50;;
65234;SDS011;51820;48.374;10.930;2022-10-23T06:23:10;5.88;;;2.20;;
65234;SDS011;51820;48.374;10.930;2022-10-23T06:26:01;6.65;;;2.40;;
65234;SDS011;51820;48.374;10.930;2022-10-23T06:28:37;9.23;;;2.57;;
65234;SDS011;51820;48.374;10.930;2022-10-23T06:31:07;6.20;;;2.70;;
65234;SDS011;51820;48.374;10.930;2022-10-23T06:33:37;8.38;;;2.95;;
65234;SDS011;51820;48.374;10.930;2022-10-23T06:36:07;6.13;;;2.30;;
65234;SDS011;51820;48.374;10.930;2022-10-23T06:38:39;7.82;;;2.30;;
65234;SDS011;51820;48.374;10.930;2022-10-23T06:41:11;5.93;;;2.60;;
65234;SDS011;51820;48.374;10.930;2022-10-23T06:43:42;6.15;;;2.08;;
65234;SDS011;51820;48.374;10.930;2022-10-23T06:46:23;5.07;;;2.25;;
65234;SDS011;51820;48.374;10.930;2022-10-23T06:49:01;7.00;;;2.15;;
65234;SDS011;51820;48.374;10.930;2022-10-23T06:51:34;9.82;;;2.53;;
65234;SDS011;51820;48.374;10.930;2022-10-23T06:54:04;6.63;;;2.20;;
65234;SDS011;51820;48.374;10.930;2022-10-23T06:57:06;5.40;;;2.03;;
65234;SDS011;51820;48.374;10.930;2022-10-23T06:59:44;5.78;;;2.10;;
65234;SDS011;51820;48.374;10.930;2022-10-23T07:02:14;6.20;;;2.13;;
65234;SDS011;51820;48.374;10.930;2022-10-23T07:04:43;5.88;;;2.30;;
65234;SDS011;51820;48.374;10.930;2022-10-23T07:07:16;6.03;;;1.90;;
65234;SDS011;51820;48.374;10.930;2022-10-23T07:09:47;5.70;;;2.10;;
65234;SDS011;51820;48.374;10.930;2022-10-23T07:12:22;7.72;;;2.40;;
65234;SDS011;51820;48.374;10.930;2022-10-23T07:15:06;4.25;;;1.63;;
65234;SDS011;51820;48.374;10.930;2022-10-23T07:17:35;5.60;;;2.08;;
65234;SDS011;51820;48.374;10.930;2022-10-23T07:20:05;5.10;;;2.13;;
65234;SDS011;51820;48.374;10.930;2022-10-23T07:22:33;8.00;;;2.28;;
65234;SDS011;51820;48.374;10.930;2022-10-23T07:25:12;6.00;;;2.20;;
65234;SDS011;51820;48.374;10.930;2022-10-23T07:27:45;5.57;;;2.17;;
65234;SDS011;51820;48.374;10.930;2022-10-23T07:30:13;6.10;;;2.00;;
65234;SDS011;51820;48.374;10.930;2022-10-23T07:32:47;5.27;;;1.90;;
65234;SDS011;51820;48.374;10.930;2022-10-23T07:35:37;5.18;;;1.88;;
65234;SDS011;51820;48.374;10.930;2022-10-23T07:38:12;5.75;;;1.95;;
65234;SDS011;51820;48.374;10.930;2022-10-23T07:40:45;8.48;;;2.08;;
65234;SDS011;51820;48.374;10.930;2022-10-23T07:43:17;6.03;;;2.00;;
65234;SDS011;51820;48.374;10.930;2022-10-23T07:45:47;7.80;;;2.33;;
65234;SDS011;51820;48.374;10.930;2022-10-23T07:48:24;10.00;;;1.92;;
65234;SDS011;51820;48.374;10.930;2022-10-23T07:50:57;5.90;;;2.28;;
65234;SDS011;51820;48.374;10.930;2022-10-23T07:53:28;6.15;;;2.30;;
65234;SDS011;51820;48.374;10.930;2022-10-23T07:56:09;6.20;;;2.50;;
65234;SDS011;51820;48.374;10.930;2022-10-23T07:59:02;7.23;;;2.37;;
65234;SDS011;51820;48.374;10.930;2022-10-23T08:01:31;4.88;;;1.58;;
65234;SDS011;51820;48.374;10.930;2022-10-23T08:04:04;5.13;;;1.70;;
65234;SDS011;51820;48.374;10.930;2022-10-23T08:06:39;4.50;;;1.40;;
65234;SDS011;51820;48.374;10.930;2022-10-23T08:09:08;4.80;;;1.50;;
65234;SDS011;51820;48.374;10.930;2022-10-23T08:11:39;5.87;;;1.30;;
65234;SDS011;51820;48.374;10.930;2022-10-23T08:14:14;4.20;;;1.30;;
65234;SDS011;51820;48.374;10.930;2022-10-23T08:16:44;5.72;;;1.70;;
65234;SDS011;51820;48.374;10.930;2022-10-23T08:19:33;5.28;;;1.55;;
65234;SDS011;51820;48.374;10.930;2022-10-23T08:22:02;4.82;;;1.70;;
65234;SDS011;51820;48.374;10.930;2022-10-23T08:24:36;5.53;;;1.40;;
65234;SDS011;51820;48.374;10.930;2022-10-23T08:27:05;5.10;;;1.63;;
65234;SDS011;51820;48.374;10.930;2022-10-23T08:29:46;8.65;;;1.60;;
65234;SDS011;51820;48.374;10.930;2022-10-23T08:39:20;5.20;;;1.43;;
65234;SDS011;51820;48.374;10.930;2022-10-23T08:55:32;5.67;;;1.50;;
65234;SDS011;51820;48.374;10.930;2022-10-23T08:58:49;3.97;;;1.23;;
65234;SDS011;51820;48.374;10.930;2022-10-23T09:01:30;5.05;;;1.20;;
65234;SDS011;51820;48.374;10.930;2022-10-23T09:04:04;7.75;;;1.60;;
65234;SDS011;51820;48.374;10.930;2022-10-23T09:09:39;5.90;;;1.10;;
65234;SDS011;51820;48.374;10.930;2022-10-23T09:12:19;5.93;;;1.60;;
65234;SDS011;51820;48.374;10.930;2022-10-23T09:14:52;6.65;;;1.38;;
65234;SDS011;51820;48.374;10.930;2022-10-23T09:17:31;3.78;;;1.13;;
65234;SDS011;51820;48.374;10.930;2022-10-23T09:20:06;4.53;;;1.10;;
65234;SDS011;51820;48.374;10.930;2022-10-23T09:22:43;4.17;;;1.10;;
65234;SDS011;51820;48.374;10.930;2022-10-23T09:25:16;4.45;;;1.00;;
65234;SDS011;51820;48.374;10.930;2022-10-23T09:30:49;5.57;;;1.30;;
65234;SDS011;51820;48.374;10.930;2022-10-23T09:33:23;6.75;;;1.30;;
65234;SDS011;51820;48.374;10.930;2022-10-23T09:35:55;5.17;;;1.10;;
65234;SDS011;51820;48.374;10.930;2022-10-23T09:38:26;4.25;;;1.23;;
65234;SDS011;51820;48.374;10.930;2022-10-23T09:41:05;4.07;;;1.30;;
65234;SDS011;51820;48.374;10.930;2022-10-23T09:43:41;8.02;;;1.30;;
65234;SDS011;51820;48.374;10.930;2022-10-23T09:46:10;3.88;;;1.27;;
65234;SDS011;51820;48.374;10.930;2022-10-23T09:48:40;3.80;;;1.10;;
65234;SDS011;51820;48.374;10.930;2022-10-23T09:51:14;6.97;;;1.20;;
65234;SDS011;51820;48.374;10.930;2022-10-23T09:53:49;3.78;;;1.05;;
65234;SDS011;51820;48.374;10.930;2022-10-23T09:56:26;4.72;;;1.30;;
65234;SDS011;51820;48.374;10.930;2022-10-23T09:58:57;3.88;;;1.10;;
65234;SDS011;51820;48.374;10.930;2022-10-23T10:01:28;4.20;;;1.10;;
65234;SDS011;51820;48.374;10.930;2022-10-23T10:04:51;4.55;;;1.27;;
65234;SDS011;51820;48.374;10.930;2022-10-23T10:07:20;5.28;;;1.00;;
65234;SDS011;51820;48.374;10.930;2022-10-23T10:09:50;4.13;;;1.40;;
65234;SDS011;51820;48.374;10.930;2022-10-23T10:12:37;3.70;;;1.00;;
65234;SDS011;51820;48.374;10.930;2022-10-23T10:15:16;3.77;;;1.10;;
65234;SDS011;51820;48.374;10.930;2022-10-23T10:18:02;3.67;;;0.90;;
65234;SDS011;51820;48.374;10.930;2022-10-23T10:21:07;4.97;;;1.40;;
65234;SDS011;51820;48.374;10.930;2022-10-23T10:31:12;3.80;;;1.20;;
65234;SDS011;51820;48.374;10.930;2022-10-23T10:34:27;5.25;;;1.30;;
65234;SDS011;51820;48.374;10.930;2022-10-23T10:37:04;6.88;;;1.20;;
65234;SDS011;51820;48.374;10.930;2022-10-23T10:39:46;5.00;;;1.20;;
65234;SDS011;51820;48.374;10.930;2022-10-23T10:42:43;3.83;;;1.10;;
65234;SDS011;51820;48.374;10.930;2022-10-23T10:45:25;4.87;;;0.97;;
65234;SDS011;51820;48.374;10.930;2022-10-23T10:48:01;3.70;;;1.00;;
65234;SDS011;51820;48.374;10.930;2022-10-23T10:51:01;3.47;;;0.95;;
65234;SDS011;51820;48.374;10.930;2022-10-23T10:53:49;6.88;;;1.30;;
65234;SDS011;51820;48.374;10.930;2022-10-23T10:56:44;5.00;;;1.35;;
65234;SDS011;51820;48.374;10.930;2022-10-23T10:59:19;4.17;;;0.80;;
65234;SDS011;51820;48.374;10.930;2022-10-23T11:01:52;2.92;;;0.80;;
65234;SDS011;51820;48.374;10.930;2022-10-23T11:04:38;4.18;;;0.90;;
65234;SDS011;51820;48.374;10.930;2022-10-23T11:07:18;4.63;;;1.00;;
65234;SDS011;51820;48.374;10.930;2022-10-23T11:10:14;4.03;;;1.00;;
65234;SDS011;51820;48.374;10.930;2022-10-23T11:12:46;5.37;;;1.23;;
65234;SDS011;51820;48.374;10.930;2022-10-23T11:15:17;5.18;;;1.00;;
65234;SDS011;51820;48.374;10.930;2022-10-23T11:17:49;2.92;;;0.90;;
65234;SDS011;51820;48.374;10.930;2022-10-23T11:20:30;5.22;;;0.90;;
65234;SDS011;51820;48.374;10.930;2022-10-23T11:26:59;3.37;;;0.80;;
65234;SDS011;51820;48.374;10.930;2022-10-23T11:29:43;2.65;;;0.70;;
65234;SDS011;51820;48.374;10.930;2022-10-23T11:32:38;3.45;;;0.90;;
65234;SDS011;51820;48.374;10.930;2022-10-23T11:35:24;6.18;;;1.00;;
65234;SDS011;51820;48.374;10.930;2022-10-23T11:38:06;3.95;;;1.00;;
65234;SDS011;51820;48.374;10.930;2022-10-23T11:40:47;4.00;;;0.80;;
65234;SDS011;51820;48.374;10.930;2022-10-23T11:43:46;4.40;;;0.90;;
65234;SDS011;51820;48.374;10.930;2022-10-23T11:46:28;3.70;;;1.15;;
65234;SDS011;51820;48.374;10.930;2022-10-23T11:49:27;6.43;;;1.80;;
65234;SDS011;51820;48.374;10.930;2022-10-23T11:52:19;6.30;;;1.90;;
65234;SDS011;51820;48.374;10.930;2022-10-23T11:54:59;3.63;;;1.10;;
65234;SDS011;51820;48.374;10.930;2022-10-23T11:57:28;7.32;;;1.10;;
65234;SDS011;51820;48.374;10.930;2022-10-23T12:00:03;4.55;;;1.17;;
65234;SDS011;51820;48.374;10.930;2022-10-23T12:02:49;5.40;;;1.05;;
65234;SDS011;51820;48.374;10.930;2022-10-23T12:05:26;6.65;;;1.05;;
65234;SDS011;51820;48.374;10.930;2022-10-23T12:08:17;3.70;;;0.90;;
65234;SDS011;51820;48.374;10.930;2022-10-23T12:10:49;4.82;;;1.00;;
65234;SDS011;51820;48.374;10.930;2022-10-23T12:13:28;5.25;;;1.85;;
65234;SDS011;51820;48.374;10.930;2022-10-23T12:16:13;8.52;;;3.08;;
65234;SDS011;51820;48.374;10.930;2022-10-23T12:18:45;9.05;;;3.45;;
65234;SDS011;51820;48.374;10.930;2022-10-23T12:21:16;9.77;;;2.10;;
65234;SDS011;51820;48.374;10.930;2022-10-23T12:23:57;10.05;;;2.72;;
65234;SDS011;51820;48.374;10.930;2022-10-23T12:26:48;9.50;;;3.08;;
65234;SDS011;51820;48.374;10.930;2022-10-23T12:29:25;5.65;;;1.80;;
65234;SDS011;51820;48.374;10.930;2022-10-23T12:32:19;6.43;;;2.38;;
65234;SDS011;51820;48.374;10.930;2022-10-23T12:38:14;6.10;;;1.60;;
65234;SDS011;51820;48.374;10.930;2022-10-23T12:40:49;6.25;;;1.63;;
65234;SDS011;51820;48.374;10.930;2022-10-23T12:43:21;3.80;;;1.20;;
65234;SDS011;51820;48.374;10.930;2022-10-23T12:45:53;6.45;;;1.15;;
65234;SDS011;51820;48.374;10.930;2022-10-23T12:48:24;6.37;;;1.03;;
65234;SDS011;51820;48.374;10.930;2022-10-23T12:50:53;3.15;;;1.00;;
65234;SDS011;51820;48.374;10.930;2022-10-23T12:53:22;4.38;;;1.23;;
65234;SDS011;51820;48.374;10.930;2022-10-23T12:55:52;5.30;;;1.20;;
65234;SDS011;51820;48.374;10.930;2022-10-23T12:58:23;4.43;;;1.40;;
65234;SDS011;51820;48.374;10.930;2022-10-23T13:00:58;4.33;;;0.90;;
65234;SDS011;51820;48.374;10.930;2022-10-23T13:03:30;3.97;;;1.05;;
65234;SDS011;51820;48.374;10.930;2022-10-23T13:05:59;5.47;;;1.20;;
65234;SDS011;51820;48.374;10.930;2022-10-23T13:11:43;5.28;;;1.25;;
65234;SDS011;51820;48.374;10.930;2022-10-23T13:14:23;6.13;;;1.10;;
65234;SDS011;51820;48.374;10.930;2022-10-23T13:20:30;4.70;;;1.08;;
65234;SDS011;51820;48.374;10.930;2022-10-23T13:23:10;3.85;;;1.02;;
65234;SDS011;51820;48.374;10.930;2022-10-23T13:25:51;6.68;;;1.80;;
65234;SDS011;51820;48.374;10.930;2022-10-23T13:28:39;3.30;;;0.97;;
65234;SDS011;51820;48.374;10.930;2022-10-23T13:34:16;5.00;;;1.10;;
65234;SDS011;51820;48.374;10.930;2022-10-23T13:39:58;5.85;;;1.52;;
65234;SDS011;51820;48.374;10.930;2022-10-23T13:42:50;3.93;;;1.30;;
65234;SDS011;51820;48.374;10.930;2022-10-23T13:45:34;5.30;;;1.33;;
65234;SDS011;51820;48.374;10.930;2022-10-23T13:48:23;4.10;;;1.40;;
65234;SDS011;51820;48.374;10.930;2022-10-23T13:55:17;3.97;;;1.10;;
65234;SDS011;51820;48.374;10.930;2022-10-23T14:01:08;3.60;;;1.10;;
65234;SDS011;51820;48.374;10.930;2022-10-23T14:04:59;4.53;;;1.40;;
65234;SDS011;51820;48.374;10.930;2022-10-23T14:07:53;5.55;;;1.40;;
65234;SDS011;51820;48.374;10.930;2022-10-23T14:10:23;7.57;;;1.20;;
65234;SDS011;51820;48.374;10.930;2022-10-23T14:12:57;5.37;;;1.10;;
65234;SDS011;51820;48.374;10.930;2022-10-23T14:19:28;4.68;;;1.33;;
65234;SDS011;51820;48.374;10.930;2022-10-23T14:25:32;6.90;;;1.63;;
65234;SDS011;51820;48.374;10.930;2022-10-23T14:28:02;4.70;;;1.30;;
65234;SDS011;51820;48.374;10.930;2022-10-23T14:30:34;5.75;;;1.52;;
65234;SDS011;51820;48.374;10.930;2022-10-23T14:33:19;8.98;;;1.80;;
65234;SDS011;51820;48.374;10.930;2022-10-23T14:35:53;6.28;;;1.35;;
65234;SDS011;51820;48.374;10.930;2022-10-23T14:38:29;7.05;;;1.60;;
65234;SDS011;51820;48.374;10.930;2022-10-23T14:43:52;7.50;;;1.60;;
65234;SDS011;51820;48.374;10.930;2022-10-23T14:46:22;6.57;;;1.38;;
65234;SDS011;51820;48.374;10.930;2022-10-23T14:49:36;5.55;;;1.80;;
65234;SDS011;51820;48.374;10.930;2022-10-23T14:52:06;7.97;;;1.90;;
65234;SDS011;51820;48.374;10.930;2022-10-23T14:54:38;4.97;;;1.83;;
65234;SDS011;51820;48.374;10.930;2022-10-23T14:57:20;6.25;;;1.75;;
65234;SDS011;51820;48.374;10.930;2022-10-23T15:02:45;7.93;;;2.17;;
65234;SDS011;51820;48.374;10.930;2022-10-23T15:05:17;8.30;;;1.95;;
65234;SDS011;51820;48.374;10.930;2022-10-23T15:08:02;6.97;;;1.67;;
65234;SDS011;51820;48.374;10.930;2022-10-23T15:10:39;6.93;;;1.70;;
65234;SDS011;51820;48.374;10.930;2022-10-23T15:13:29;5.65;;;1.75;;
65234;SDS011;51820;48.374;10.930;2022-10-23T15:16:27;8.57;;;1.77;;
65234;SDS011;51820;48.374;10.930;2022-10-23T15:19:11;7.70;;;2.10;;
65234;SDS011;51820;48.374;10.930;2022-10-23T15:21:44;6.23;;;1.57;;
65234;SDS011;51820;48.374;10.930;2022-10-23T15:24:45;5.72;;;1.98;;
65234;SDS011;51820;48.374;10.930;2022-10-23T15:27:18;7.82;;;1.70;;
65234;SDS011;51820;48.374;10.930;2022-10-23T15:29:48;4.57;;;1.80;;
65234;SDS011;51820;48.374;10.930;2022-10-23T15:32:20;8.07;;;1.55;;
65234;SDS011;51820;48.374;10.930;2022-10-23T15:34:49;6.10;;;1.50;;
65234;SDS011;51820;48.374;10.930;2022-10-23T15:37:19;4.18;;;1.25;;
65234;SDS011;51820;48.374;10.930;2022-10-23T15:39:48;4.47;;;1.58;;
65234;SDS011;51820;48.374;10.930;2022-10-23T15:42:18;5.18;;;1.60;;
65234;SDS011;51820;48.374;10.930;2022-10-23T15:44:46;4.50;;;1.42;;
65234;SDS011;51820;48.374;10.930;2022-10-23T15:47:16;4.73;;;1.50;;
65234;SDS011;51820;48.374;10.930;2022-10-23T15:49:45;4.60;;;1.55;;
65234;SDS011;51820;48.374;10.930;2022-10-23T15:52:15;5.88;;;1.50;;
65234;SDS011;51820;48.374;10.930;2022-10-23T15:54:44;5.10;;;1.55;;
65234;SDS011;51820;48.374;10.930;2022-10-23T15:57:15;4.97;;;1.38;;
65234;SDS011;51820;48.374;10.930;2022-10-23T15:59:43;4.27;;;1.30;;
65234;SDS011;51820;48.374;10.930;2022-10-23T16:02:11;12.93;;;1.65;;
65234;SDS011;51820;48.374;10.930;2022-10-23T16:04:42;5.00;;;1.45;;
65234;SDS011;51820;48.374;10.930;2022-10-23T16:07:11;5.55;;;1.27;;
65234;SDS011;51820;48.374;10.930;2022-10-23T16:09:44;4.47;;;1.40;;
65234;SDS011;51820;48.374;10.930;2022-10-23T16:12:12;4.93;;;1.43;;
65234;SDS011;51820;48.374;10.930;2022-10-23T16:14:40;4.93;;;1.58;;
65234;SDS011;51820;48.374;10.930;2022-10-23T16:17:08;6.82;;;1.38;;
65234;SDS011;51820;48.374;10.930;2022-10-23T16:19:38;5.13;;;1.50;;
65234;SDS011;51820;48.374;10.930;2022-10-23T16:22:08;8.43;;;1.92;;
65234;SDS011;51820;48.374;10.930;2022-10-23T16:24:37;11.73;;;1.80;;
65234;SDS011;51820;48.374;10.930;2022-10-23T16:27:07;6.53;;;1.50;;
65234;SDS011;51820;48.374;10.930;2022-10-23T16:29:44;7.15;;;1.60;;
65234;SDS011;51820;48.374;10.930;2022-10-23T16:32:12;7.57;;;2.72;;
65234;SDS011;51820;48.374;10.930;2022-10-23T16:34:41;7.63;;;3.75;;
65234;SDS011;51820;48.374;10.930;2022-10-23T16:37:10;6.93;;;3.33;;